createdAt,value
2018-10-01T00:00:45.672Z,8.67
2018-10-01T00:03:14.838Z,8.70
2018-10-01T00:05:43.949Z,8.77
2018-10-01T00:08:13.067Z,8.76
2018-10-01T00:10:42.211Z,8.76
2018-10-01T00:13:11.318Z,8.81
2018-10-01T00:15:40.472Z,8.84
2018-10-01T00:18:09.631Z,8.88
2018-10-01T00:20:44.017Z,8.94
2018-10-01T00:23:13.125Z,8.93
2018-10-01T00:25:42.240Z,8.94
2018-10-01T00:28:11.364Z,9.00
2018-10-01T00:30:40.513Z,9.02
2018-10-01T00:33:09.661Z,9.00
2018-10-01T00:35:38.760Z,9.01
2018-10-01T00:38:07.936Z,9.03
2018-10-01T00:40:37.933Z,9.06
2018-10-01T00:43:07.065Z,9.08
2018-10-01T00:45:36.173Z,9.07
2018-10-01T00:48:05.322Z,9.15
2018-10-01T00:50:34.480Z,9.16
2018-10-01T00:53:03.647Z,9.28
2018-10-01T00:55:33.744Z,9.29
2018-10-01T00:58:02.919Z,9.30
2018-10-01T01:00:32.103Z,9.35
2018-10-01T01:03:01.530Z,9.39
2018-10-01T01:05:30.717Z,9.42
2018-10-01T01:07:59.808Z,9.43
2018-10-01T01:10:29.097Z,9.40
2018-10-01T01:12:58.274Z,9.40
2018-10-01T01:15:27.796Z,9.50
2018-10-01T01:17:56.949Z,9.56
2018-10-01T01:20:26.125Z,9.60
2018-10-01T01:22:55.507Z,9.58
2018-10-01T01:25:24.906Z,9.55
2018-10-01T01:27:54.146Z,9.54
2018-10-01T01:30:23.324Z,9.58
2018-10-01T01:32:52.480Z,9.69
2018-10-01T01:35:21.668Z,9.72
2018-10-01T01:37:51.016Z,9.76
2018-10-01T01:40:20.184Z,9.81
2018-10-01T01:42:49.384Z,9.81
2018-10-01T01:45:18.494Z,9.84
2018-10-01T01:47:47.864Z,9.88
2018-10-01T01:50:17.150Z,9.92
2018-10-01T01:52:46.323Z,9.99
2018-10-01T01:55:15.484Z,10.02
2018-10-01T01:57:44.637Z,10.09
2018-10-01T02:00:13.752Z,10.08
2018-10-01T02:02:42.911Z,10.15
2018-10-01T02:05:12.107Z,10.17
2018-10-01T02:07:41.324Z,10.19
2018-10-01T02:10:10.477Z,10.24
2018-10-01T02:12:39.701Z,10.22
2018-10-01T02:15:08.848Z,10.22
2018-10-01T02:17:38.025Z,10.26
2018-10-01T02:20:07.185Z,10.29
2018-10-01T02:22:36.516Z,10.33
2018-10-01T02:25:05.859Z,10.29
2018-10-01T02:27:35.061Z,10.24
2018-10-01T02:30:04.358Z,10.33
2018-10-01T02:32:33.511Z,10.29
2018-10-01T02:35:03.092Z,10.28
2018-10-01T02:37:32.548Z,10.28
2018-10-01T02:40:01.825Z,10.24
2018-10-01T02:42:31.047Z,10.19
2018-10-01T02:45:00.196Z,10.19
2018-10-01T02:47:29.390Z,10.21
2018-10-01T02:49:58.554Z,10.22
2018-10-01T02:52:33.278Z,10.19
2018-10-01T02:55:03.437Z,10.17
2018-10-01T02:57:32.893Z,10.20
2018-10-01T03:00:02.035Z,10.19
2018-10-01T03:02:31.177Z,10.20
2018-10-01T03:05:00.339Z,10.23
2018-10-01T03:07:29.480Z,10.17
2018-10-01T03:09:58.740Z,10.15
2018-10-01T03:12:27.925Z,10.10
2018-10-01T03:14:57.064Z,10.07
2018-10-01T03:17:26.252Z,10.07
2018-10-01T03:19:55.439Z,10.09
2018-10-01T03:22:25.613Z,10.07
2018-10-01T03:24:54.829Z,10.03
2018-10-01T03:27:24.046Z,9.99
2018-10-01T03:29:53.250Z,9.99
2018-10-01T03:32:22.420Z,10.04
2018-10-01T03:34:51.739Z,10.04
2018-10-01T03:37:20.886Z,10.01
2018-10-01T03:39:50.048Z,9.99
2018-10-01T03:42:19.242Z,10.01
2018-10-01T03:44:48.526Z,9.99
2018-10-01T03:47:17.971Z,9.97
2018-10-01T03:49:47.114Z,9.95
2018-10-01T03:52:16.272Z,9.93
2018-10-01T03:54:45.752Z,9.89
2018-10-01T03:57:14.880Z,9.90
2018-10-01T03:59:45.280Z,9.88
2018-10-01T04:02:14.428Z,9.98
2018-10-01T04:04:43.792Z,9.97
2018-10-01T04:07:12.955Z,9.98
2018-10-01T04:09:42.084Z,10.03
2018-10-01T04:12:11.304Z,10.03
2018-10-01T04:14:40.440Z,10.01
2018-10-01T04:17:09.593Z,10.00
2018-10-01T04:19:38.824Z,9.97
2018-10-01T04:22:07.952Z,9.98
2018-10-01T04:24:37.145Z,10.00
2018-10-01T04:27:06.312Z,9.98
2018-10-01T04:29:35.481Z,9.94
2018-10-01T04:32:04.965Z,9.93
2018-10-01T04:34:34.092Z,9.92
2018-10-01T04:37:03.212Z,9.91
2018-10-01T04:39:32.375Z,9.88
2018-10-01T04:42:01.544Z,9.85
2018-10-01T04:44:30.950Z,9.81
2018-10-01T04:47:00.092Z,9.85
2018-10-01T04:49:29.258Z,9.85
2018-10-01T04:51:58.403Z,9.83
2018-10-01T04:54:27.533Z,9.86
2018-10-01T04:56:56.704Z,9.79
2018-10-01T04:59:25.832Z,9.76
2018-10-01T05:01:54.977Z,9.73
2018-10-01T05:04:24.231Z,9.67
2018-10-01T05:06:53.408Z,9.63
2018-10-01T05:09:22.564Z,9.64
2018-10-01T05:11:51.708Z,9.66
2018-10-01T05:14:20.877Z,9.63
2018-10-01T05:16:50.082Z,9.65
2018-10-01T05:19:19.256Z,9.62
2018-10-01T05:21:48.612Z,9.68
2018-10-01T05:24:17.818Z,9.73
2018-10-01T05:26:47.045Z,9.76
2018-10-01T05:29:16.200Z,9.86
2018-10-01T05:31:45.419Z,9.78
2018-10-01T05:34:14.623Z,9.80
2018-10-01T05:36:43.789Z,9.85
2018-10-01T05:39:13.420Z,9.89
2018-10-01T05:41:42.594Z,9.87
2018-10-01T05:44:11.741Z,9.88
2018-10-01T05:46:41.793Z,9.87
2018-10-01T05:49:11.051Z,9.83
2018-10-01T05:51:40.181Z,9.79
2018-10-01T05:54:09.320Z,9.75
2018-10-01T05:56:38.467Z,9.75
2018-10-01T05:59:07.664Z,9.71
2018-10-01T06:01:36.883Z,9.73
2018-10-01T06:04:06.096Z,9.73
2018-10-01T06:06:35.311Z,9.71
2018-10-01T06:09:06.589Z,9.81
2018-10-01T06:11:35.990Z,9.82
2018-10-01T06:14:05.349Z,9.81
2018-10-01T06:16:34.507Z,9.80
2018-10-01T06:19:03.673Z,9.82
2018-10-01T06:21:33.003Z,9.89
2018-10-01T06:24:02.252Z,9.90
2018-10-01T06:26:31.523Z,9.93
2018-10-01T06:29:00.745Z,9.92
2018-10-01T06:34:19.951Z,9.97
2018-10-01T06:37:00.064Z,9.96
2018-10-01T06:39:29.425Z,9.92
2018-10-01T06:41:58.795Z,9.89
2018-10-01T06:44:27.934Z,9.89
2018-10-01T06:46:57.130Z,9.89
2018-10-01T06:49:26.304Z,9.88
2018-10-01T06:51:55.528Z,9.84
2018-10-01T06:54:24.719Z,9.86
2018-10-01T06:56:53.957Z,9.80
2018-10-01T06:59:23.091Z,9.76
2018-10-01T07:01:52.712Z,9.77
2018-10-01T07:04:21.904Z,9.82
2018-10-01T07:06:51.101Z,9.80
2018-10-01T07:09:20.318Z,9.77
2018-10-01T07:11:49.603Z,9.75
2018-10-01T07:14:18.747Z,9.77
2018-10-01T07:16:47.991Z,9.71
2018-10-01T07:19:17.184Z,9.62
2018-10-01T07:21:46.342Z,9.58
2018-10-01T07:24:15.558Z,9.53
2018-10-01T07:26:44.888Z,9.53
2018-10-01T07:29:14.109Z,9.62
2018-10-01T07:31:43.429Z,9.59
2018-10-01T07:34:12.584Z,9.68
2018-10-01T07:36:41.721Z,9.72
2018-10-01T07:39:10.924Z,9.71
2018-10-01T07:41:40.070Z,9.86
2018-10-01T07:44:09.489Z,9.96
2018-10-01T07:46:38.679Z,10.02
2018-10-01T07:49:07.852Z,10.08
2018-10-01T07:51:37.047Z,10.10
2018-10-01T07:54:06.240Z,10.09
2018-10-01T07:56:35.500Z,10.23
2018-10-01T07:59:04.696Z,10.22
2018-10-01T08:01:34.046Z,10.21
2018-10-01T08:04:03.235Z,10.28
2018-10-01T08:06:32.461Z,10.38
2018-10-01T08:09:01.630Z,10.50
2018-10-01T08:11:30.804Z,10.54
2018-10-01T08:14:00.103Z,10.62
2018-10-01T08:16:29.326Z,10.62
2018-10-01T08:18:58.480Z,10.54
2018-10-01T08:21:27.636Z,10.47
2018-10-01T08:23:56.877Z,10.42
2018-10-01T08:26:26.144Z,10.38
2018-10-01T08:28:55.329Z,10.38
2018-10-01T08:31:24.628Z,10.41
2018-10-01T08:33:53.836Z,10.66
2018-10-01T08:36:23.036Z,10.76
2018-10-01T08:38:52.242Z,10.84
2018-10-01T08:41:21.443Z,10.90
2018-10-01T08:43:50.692Z,10.93
2018-10-01T08:46:19.890Z,11.02
2018-10-01T08:48:54.276Z,10.96
2018-10-01T08:51:29.103Z,10.88
2018-10-01T08:54:07.404Z,10.91
2018-10-01T08:56:36.571Z,10.82
2018-10-01T08:59:05.871Z,10.90
2018-10-01T09:01:34.999Z,11.00
2018-10-01T09:04:04.179Z,11.15
2018-10-01T09:06:33.829Z,11.31
2018-10-01T09:09:03.167Z,11.47
2018-10-01T09:11:32.374Z,11.51
2018-10-01T09:14:01.591Z,11.55
2018-10-01T09:16:30.777Z,11.56
2018-10-01T09:18:59.969Z,11.57
2018-10-01T09:21:29.267Z,11.79
2018-10-01T09:23:58.936Z,11.78
2018-10-01T09:26:28.301Z,12.01
2018-10-01T09:28:57.463Z,11.97
2018-10-01T09:31:26.664Z,11.85
2018-10-01T09:33:55.826Z,11.77
2018-10-01T09:36:25.740Z,11.73
2018-10-01T09:38:55.020Z,11.84
2018-10-01T09:41:24.211Z,11.92
2018-10-01T09:43:53.381Z,12.12
2018-10-01T09:46:22.598Z,12.25
2018-10-01T09:48:51.754Z,12.39
2018-10-01T09:51:20.916Z,12.55
2018-10-01T09:53:50.196Z,12.81
2018-10-01T09:56:19.363Z,13.00
2018-10-01T09:58:48.587Z,13.14
2018-10-01T10:01:17.808Z,13.12
2018-10-01T10:03:47.047Z,13.16
2018-10-01T10:06:16.232Z,13.47
2018-10-01T10:08:45.366Z,13.40
2018-10-01T10:11:14.560Z,13.35
2018-10-01T10:13:43.775Z,13.15
2018-10-01T10:16:13.033Z,13.02
2018-10-01T10:18:42.900Z,12.94
2018-10-01T10:21:12.077Z,12.73
2018-10-01T10:23:41.264Z,12.60
2018-10-01T10:26:10.435Z,12.38
2018-10-01T10:28:40.241Z,12.20
2018-10-01T10:31:09.548Z,11.75
2018-10-01T10:33:38.709Z,11.58
2018-10-01T10:36:08.098Z,11.49
2018-10-01T10:38:37.387Z,11.37
2018-10-01T10:41:06.568Z,11.31
2018-10-01T10:43:35.732Z,11.25
2018-10-01T10:46:04.942Z,11.19
2018-10-01T10:48:34.101Z,11.17
2018-10-01T10:51:03.269Z,11.19
2018-10-01T10:53:32.814Z,11.37
2018-10-01T10:56:02.055Z,11.85
2018-10-01T10:58:31.191Z,12.17
2018-10-01T11:01:00.392Z,12.33
2018-10-01T11:03:29.536Z,12.52
2018-10-01T11:05:58.724Z,12.58
2018-10-01T11:08:27.993Z,12.44
2018-10-01T11:10:57.197Z,12.17
2018-10-01T11:13:26.380Z,12.03
2018-10-01T11:15:55.537Z,12.12
2018-10-01T11:18:24.798Z,11.88
2018-10-01T11:20:54.059Z,11.55
2018-10-01T11:23:23.216Z,11.39
2018-10-01T11:25:52.384Z,11.22
2018-10-01T11:28:21.581Z,11.16
2018-10-01T11:30:50.839Z,11.41
2018-10-01T11:33:20.093Z,11.78
2018-10-01T11:35:49.400Z,11.93
2018-10-01T11:38:18.590Z,11.89
2018-10-01T11:40:47.755Z,11.86
2018-10-01T11:43:16.937Z,11.60
2018-10-01T11:45:46.898Z,11.68
2018-10-01T11:48:15.982Z,11.47
2018-10-01T11:50:45.468Z,11.55
2018-10-01T11:53:14.675Z,11.50
2018-10-01T11:55:43.929Z,11.26
2018-10-01T11:58:13.108Z,11.33
2018-10-01T12:00:42.711Z,11.46
2018-10-01T12:03:11.934Z,11.52
2018-10-01T12:05:41.096Z,11.65
2018-10-01T12:08:10.287Z,11.77
2018-10-01T12:10:39.497Z,12.13
2018-10-01T12:13:08.669Z,12.23
2018-10-01T12:15:38.754Z,12.46
2018-10-01T12:18:08.196Z,12.40
2018-10-01T12:20:37.551Z,12.17
2018-10-01T12:23:06.943Z,12.07
2018-10-01T12:25:36.126Z,12.12
2018-10-01T12:28:05.400Z,12.23
2018-10-01T12:30:34.619Z,12.41
2018-10-01T12:33:03.789Z,12.46
2018-10-01T12:35:32.984Z,12.21
2018-10-01T12:38:02.160Z,12.05
2018-10-01T12:40:36.845Z,11.91
2018-10-01T12:43:09.880Z,11.75
2018-10-01T12:45:44.480Z,11.79
2018-10-01T12:48:20.017Z,11.90
2018-10-01T12:50:49.856Z,11.85
2018-10-01T12:53:19.057Z,11.96
2018-10-01T12:55:48.192Z,11.97
2018-10-01T12:58:17.299Z,11.84
2018-10-01T13:00:47.016Z,11.93
2018-10-01T13:03:16.188Z,11.87
2018-10-01T13:05:45.307Z,11.82
2018-10-01T13:08:14.504Z,11.69
2018-10-01T13:10:43.653Z,11.67
2018-10-01T13:13:12.796Z,11.67
2018-10-01T13:15:41.988Z,11.73
2018-10-01T13:18:11.617Z,11.61
2018-10-01T13:20:40.777Z,11.67
2018-10-01T13:23:10.600Z,11.91
2018-10-01T13:25:45.312Z,11.90
2018-10-01T13:28:14.524Z,11.75
2018-10-01T13:30:43.699Z,11.90
2018-10-01T13:33:12.827Z,11.94
2018-10-01T13:35:42.026Z,12.02
2018-10-01T13:38:11.155Z,12.19
2018-10-01T13:40:40.312Z,12.03
2018-10-01T13:43:09.500Z,12.11
2018-10-01T13:45:38.641Z,11.90
2018-10-01T13:48:07.897Z,11.79
2018-10-01T13:50:36.940Z,11.59
2018-10-01T13:53:06.164Z,11.58
2018-10-01T13:55:35.284Z,11.70
2018-10-01T13:58:04.522Z,11.72
2018-10-01T14:00:33.709Z,11.73
2018-10-01T14:03:02.912Z,11.84
2018-10-01T14:05:32.122Z,11.97
2018-10-01T14:08:01.325Z,12.03
2018-10-01T14:10:30.425Z,11.90
2018-10-01T14:12:59.583Z,12.01
2018-10-01T14:15:28.712Z,12.04
2018-10-01T14:17:58.127Z,12.14
2018-10-01T14:20:27.931Z,12.17
2018-10-01T14:22:57.336Z,11.95
2018-10-01T14:25:26.948Z,11.80
2018-10-01T14:27:56.128Z,11.65
2018-10-01T14:30:25.439Z,11.63
2018-10-01T14:32:55.256Z,11.53
2018-10-01T14:35:24.496Z,11.52
2018-10-01T14:37:53.612Z,11.56
2018-10-01T14:40:22.809Z,11.67
2018-10-01T14:42:53.125Z,11.90
2018-10-01T14:45:22.697Z,11.93
2018-10-01T14:47:51.856Z,11.93
2018-10-01T14:50:21.139Z,11.77
2018-10-01T14:52:50.271Z,11.71
2018-10-01T14:55:19.417Z,11.67
2018-10-01T14:57:48.748Z,11.78
2018-10-01T15:00:17.901Z,11.77
2018-10-01T15:02:47.111Z,11.77
2018-10-01T15:05:16.282Z,11.85
2018-10-01T15:07:45.412Z,11.79
2018-10-01T15:10:14.664Z,11.64
2018-10-01T15:12:43.880Z,11.49
2018-10-01T15:15:13.115Z,11.42
2018-10-01T15:17:42.560Z,11.45
2018-10-01T15:20:11.774Z,11.58
2018-10-01T15:22:40.952Z,11.63
2018-10-01T15:25:10.261Z,11.70
2018-10-01T15:27:39.401Z,11.70
2018-10-01T15:30:08.831Z,11.63
2018-10-01T15:32:37.972Z,11.60
2018-10-01T15:35:07.174Z,11.55
2018-10-01T15:37:36.296Z,11.42
2018-10-01T15:40:05.549Z,11.27
2018-10-01T15:42:34.726Z,11.26
2018-10-01T15:45:04.078Z,11.13
2018-10-01T15:47:33.206Z,11.04
2018-10-01T15:50:02.448Z,11.06
2018-10-01T15:52:31.520Z,11.04
2018-10-01T15:55:00.664Z,10.90
2018-10-01T15:57:30.373Z,10.76
2018-10-01T16:00:00.277Z,10.72
2018-10-01T16:02:29.671Z,10.63
2018-10-01T16:04:58.856Z,10.52
2018-10-01T16:07:28.152Z,10.33
2018-10-01T16:09:57.316Z,10.19
2018-10-01T16:12:26.481Z,10.05
2018-10-01T16:14:56.049Z,10.01
2018-10-01T16:17:25.138Z,9.85
2018-10-01T16:19:54.362Z,9.81
2018-10-01T16:22:23.561Z,9.74
2018-10-01T16:24:52.738Z,9.76
2018-10-01T16:27:21.987Z,9.60
2018-10-01T16:29:51.100Z,9.51
2018-10-01T16:32:20.276Z,9.40
2018-10-01T16:34:49.379Z,9.33
2018-10-01T16:37:18.553Z,9.17
2018-10-01T16:39:47.656Z,9.15
2018-10-01T16:42:16.874Z,9.08
2018-10-01T16:44:45.970Z,9.02
2018-10-01T16:47:15.097Z,8.99
2018-10-01T16:49:44.592Z,9.00
2018-10-01T16:52:13.760Z,8.97
2018-10-01T16:54:42.922Z,8.88
2018-10-01T16:57:12.192Z,8.89
2018-10-01T16:59:41.306Z,8.86
2018-10-01T17:02:10.444Z,8.85
2018-10-01T17:04:40.440Z,8.74
2018-10-01T17:07:09.648Z,8.69
2018-10-01T17:09:38.945Z,8.60
2018-10-01T17:12:08.256Z,8.59
2018-10-01T17:14:37.571Z,8.53
2018-10-01T17:17:06.953Z,8.46
2018-10-01T17:19:36.112Z,8.50
2018-10-01T17:22:05.320Z,8.43
2018-10-01T17:24:34.613Z,8.38
2018-10-01T17:27:04.537Z,8.41
2018-10-01T17:29:33.724Z,8.42
2018-10-01T17:32:03.674Z,8.45
2018-10-01T17:34:32.852Z,8.46
2018-10-01T17:37:03.994Z,8.41
2018-10-01T17:39:33.143Z,8.43
2018-10-01T17:42:02.556Z,8.44
2018-10-01T17:44:31.688Z,8.48
2018-10-01T17:47:00.812Z,8.49
2018-10-01T17:49:29.926Z,8.52
2018-10-01T17:52:01.659Z,8.58
2018-10-01T17:54:30.862Z,8.67
2018-10-01T17:57:00.102Z,8.65
2018-10-01T17:59:29.249Z,8.74
2018-10-01T18:01:58.421Z,8.80
2018-10-01T18:04:28.510Z,8.76
2018-10-01T18:06:57.640Z,8.78
2018-10-01T18:09:26.752Z,8.67
2018-10-01T18:11:55.981Z,8.63
2018-10-01T18:14:25.050Z,8.62
2018-10-01T18:16:54.396Z,8.60
2018-10-01T18:19:23.496Z,8.68
2018-10-01T18:21:53.614Z,8.77
2018-10-01T18:24:22.772Z,8.73
2018-10-01T18:26:51.851Z,8.70
2018-10-01T18:29:21.112Z,8.67
2018-10-01T18:31:50.232Z,8.68
2018-10-01T18:34:19.373Z,8.71
2018-10-01T18:36:48.523Z,8.77
2018-10-01T18:39:22.155Z,8.83
2018-10-01T18:41:51.357Z,8.73
2018-10-01T18:44:20.524Z,8.61
2018-10-01T18:46:49.828Z,8.63
2018-10-01T18:49:19.080Z,8.60
2018-10-01T18:51:48.351Z,8.52
2018-10-01T18:54:17.652Z,8.48
2018-10-01T18:56:46.753Z,8.46
2018-10-01T18:59:15.957Z,8.44
2018-10-01T19:01:45.188Z,8.43
2018-10-01T19:04:14.427Z,8.46
2018-10-01T19:06:43.993Z,8.41
2018-10-01T19:09:13.379Z,8.46
2018-10-01T19:11:42.888Z,8.62
2018-10-01T19:14:12.080Z,8.62
2018-10-01T19:16:41.365Z,8.53
2018-10-01T19:19:10.540Z,8.52
2018-10-01T19:21:39.730Z,8.48
2018-10-01T19:24:08.945Z,8.47
2018-10-01T19:26:38.136Z,8.46
2018-10-01T19:29:07.273Z,8.40
2018-10-01T19:31:36.564Z,8.41
2018-10-01T19:34:05.822Z,8.37
2018-10-01T19:36:35.026Z,8.35
2018-10-01T19:39:05.463Z,8.26
2018-10-01T19:41:34.609Z,8.26
2018-10-01T19:44:03.978Z,8.24
2018-10-01T19:46:33.092Z,8.19
2018-10-01T19:49:02.640Z,8.23
2018-10-01T19:51:31.799Z,8.18
2018-10-01T19:54:00.969Z,8.17
2018-10-01T19:56:30.244Z,8.15
2018-10-01T19:58:59.507Z,8.19
2018-10-01T20:01:28.596Z,8.17
2018-10-01T20:03:57.915Z,8.17
2018-10-01T20:06:27.091Z,8.13
2018-10-01T20:08:56.345Z,8.11
2018-10-01T20:11:25.547Z,8.13
2018-10-01T20:13:54.612Z,8.13
2018-10-01T20:16:23.848Z,8.10
2018-10-01T20:18:52.969Z,8.14
2018-10-01T20:21:22.161Z,8.11
2018-10-01T20:23:51.330Z,8.08
2018-10-01T20:26:20.540Z,8.10
2018-10-01T20:28:50.055Z,7.98
2018-10-01T20:31:18.924Z,7.92
2018-10-01T20:33:48.189Z,7.86
2018-10-01T20:36:17.432Z,7.84
2018-10-01T20:38:46.673Z,7.79
2018-10-01T20:41:15.787Z,7.73
2018-10-01T20:43:45.040Z,7.73
2018-10-01T20:46:14.209Z,7.69
2018-10-01T20:48:43.358Z,7.72
2018-10-01T20:51:12.562Z,7.70
2018-10-01T20:53:45.725Z,7.73
2018-10-01T20:56:15.511Z,7.81
2018-10-01T20:58:44.707Z,7.74
2018-10-01T21:01:13.910Z,7.64
2018-10-01T21:03:43.077Z,7.54
2018-10-01T21:06:12.323Z,7.46
2018-10-01T21:08:41.647Z,7.34
2018-10-01T21:11:10.813Z,7.31
2018-10-01T21:13:40.087Z,7.26
2018-10-01T21:16:09.331Z,7.20
2018-10-01T21:18:38.582Z,7.15
2018-10-01T21:21:07.856Z,7.14
2018-10-01T21:23:37.100Z,7.11
2018-10-01T21:26:06.636Z,7.10
2018-10-01T21:28:35.909Z,7.08
2018-10-01T21:31:05.090Z,7.03
2018-10-01T21:33:34.357Z,6.99
2018-10-01T21:36:03.654Z,7.00
2018-10-01T21:38:32.901Z,7.01
2018-10-01T21:41:02.217Z,7.03
2018-10-01T21:43:31.367Z,7.03
2018-10-01T21:46:00.584Z,7.06
2018-10-01T21:48:29.781Z,7.05
2018-10-01T21:50:59.012Z,7.12
2018-10-01T21:53:28.248Z,7.11
2018-10-01T21:55:57.520Z,7.11
2018-10-01T21:58:26.866Z,7.16
2018-10-01T22:01:01.313Z,7.28
2018-10-01T22:03:30.466Z,7.29
2018-10-01T22:05:59.679Z,7.33
2018-10-01T22:08:28.816Z,7.32
2018-10-01T22:10:58.100Z,7.32
2018-10-01T22:13:27.321Z,7.31
2018-10-01T22:15:56.589Z,7.29
2018-10-01T22:18:26.788Z,7.27
2018-10-01T22:20:55.979Z,7.27
2018-10-01T22:23:25.262Z,7.24
2018-10-01T22:25:54.450Z,7.16
2018-10-01T22:28:23.609Z,7.09
2018-10-01T22:30:52.800Z,7.03
2018-10-01T22:33:22.012Z,7.02
2018-10-01T22:35:51.243Z,6.97
2018-10-01T22:38:20.454Z,6.98
2018-10-01T22:40:49.703Z,6.94
2018-10-01T22:43:18.886Z,6.92
2018-10-01T22:45:48.160Z,6.88
2018-10-01T22:48:17.309Z,6.87
2018-10-01T22:50:46.716Z,6.78
2018-10-01T22:53:15.913Z,6.73
2018-10-01T22:55:45.156Z,6.68
2018-10-01T22:58:14.355Z,6.62
2018-10-01T23:00:43.533Z,6.58
2018-10-01T23:03:12.744Z,6.61
2018-10-01T23:05:42.199Z,6.55
2018-10-01T23:08:11.364Z,6.48
2018-10-01T23:10:40.493Z,6.48
2018-10-01T23:13:09.669Z,6.46
2018-10-01T23:15:38.800Z,6.49
2018-10-01T23:18:08.012Z,6.48
2018-10-01T23:20:37.335Z,6.43
2018-10-01T23:23:06.573Z,6.41
2018-10-01T23:25:35.757Z,6.38
2018-10-01T23:28:04.896Z,6.38
2018-10-01T23:30:34.062Z,6.36
2018-10-01T23:33:03.773Z,6.35
2018-10-01T23:35:32.886Z,6.36
2018-10-01T23:38:02.114Z,6.34
2018-10-01T23:40:31.402Z,6.34
2018-10-01T23:43:00.631Z,6.33
2018-10-01T23:45:29.851Z,6.30
2018-10-01T23:47:59.009Z,6.32
2018-10-01T23:50:28.223Z,6.26
2018-10-01T23:52:57.371Z,6.26
2018-10-01T23:55:26.623Z,6.18
2018-10-01T23:57:55.746Z,6.24
